createdAt,value
2023-01-24T00:00:21.043Z,18.55
2023-01-24T00:00:54.131Z,18.73
2023-01-24T00:01:26.363Z,19.17
2023-01-24T00:01:58.214Z,15.30
2023-01-24T00:02:30.222Z,15.93
2023-01-24T00:03:02.488Z,13.60
2023-01-24T00:03:34.396Z,13.60
2023-01-24T00:04:06.811Z,12.88
2023-01-24T00:04:38.767Z,13.82
2023-01-24T00:05:11.027Z,15.15
2023-01-24T00:05:45.097Z,15.20
2023-01-24T00:06:17.696Z,14.23
2023-01-24T00:06:49.582Z,14.52
2023-01-24T00:07:21.670Z,13.95
2023-01-24T00:07:54.288Z,13.15
2023-01-24T00:08:26.279Z,14.60
2023-01-24T00:08:58.402Z,14.25
2023-01-24T00:09:30.284Z,13.95
2023-01-24T00:10:02.187Z,14.48
2023-01-24T00:10:34.070Z,14.20
2023-01-24T00:11:09.684Z,14.65
2023-01-24T00:11:41.839Z,14.93
2023-01-24T00:12:13.767Z,13.35
2023-01-24T00:12:45.604Z,14.27
2023-01-24T00:13:17.884Z,12.35
2023-01-24T00:13:49.793Z,14.05
2023-01-24T00:14:21.703Z,14.10
2023-01-24T00:14:54.634Z,12.60
2023-01-24T00:15:26.828Z,13.88
2023-01-24T00:16:07.314Z,13.35
2023-01-24T00:16:39.281Z,13.25
2023-01-24T00:17:11.410Z,12.50
2023-01-24T00:17:43.421Z,13.65
2023-01-24T00:18:15.306Z,13.27
2023-01-24T00:18:48.442Z,13.70
2023-01-24T00:19:20.359Z,14.55
2023-01-24T00:19:52.241Z,13.88
2023-01-24T00:20:25.565Z,12.88
2023-01-24T00:21:10.321Z,13.45
2023-01-24T00:21:42.248Z,14.93
2023-01-24T00:22:14.435Z,14.93
2023-01-24T00:22:46.257Z,13.68
2023-01-24T00:23:18.138Z,14.48
2023-01-24T00:23:53.200Z,14.07
2023-01-24T00:24:27.464Z,14.18
2023-01-24T00:25:02.409Z,15.98
2023-01-24T00:25:34.302Z,14.93
2023-01-24T00:26:06.244Z,14.63
2023-01-24T00:26:38.199Z,15.27
2023-01-24T00:27:10.085Z,14.98
2023-01-24T00:27:42.380Z,14.52
2023-01-24T00:28:14.213Z,14.57
2023-01-24T00:28:47.451Z,13.45
2023-01-24T00:29:19.371Z,13.00
2023-01-24T00:29:51.281Z,12.48
2023-01-24T00:30:23.274Z,11.63
2023-01-24T00:30:55.247Z,11.65
2023-01-24T00:31:27.397Z,10.82
2023-01-24T00:31:59.917Z,11.63
2023-01-24T00:32:32.399Z,10.43
2023-01-24T00:33:04.633Z,11.10
2023-01-24T00:33:36.544Z,8.90
2023-01-24T00:34:08.470Z,8.90
2023-01-24T00:34:42.247Z,8.15
2023-01-24T00:35:14.165Z,8.23
2023-01-24T00:35:46.086Z,8.35
2023-01-24T00:36:18.003Z,8.73
2023-01-24T00:36:49.924Z,7.97
2023-01-24T00:37:21.839Z,8.43
2023-01-24T00:37:53.779Z,8.25
2023-01-24T00:38:26.252Z,7.90
2023-01-24T00:38:58.225Z,8.30
2023-01-24T00:39:31.189Z,8.80
2023-01-24T00:40:03.149Z,8.13
2023-01-24T00:40:35.051Z,8.82
2023-01-24T00:41:07.013Z,9.70
2023-01-24T00:41:38.978Z,9.20
2023-01-24T00:42:10.960Z,9.90
2023-01-24T00:42:42.844Z,8.90
2023-01-24T00:43:14.796Z,9.25
2023-01-24T00:43:46.989Z,9.27
2023-01-24T00:44:18.863Z,9.40
2023-01-24T00:44:51.392Z,9.38
2023-01-24T00:45:23.729Z,8.88
2023-01-24T00:45:56.289Z,9.18
2023-01-24T00:46:28.307Z,9.32
2023-01-24T00:47:00.242Z,9.98
2023-01-24T00:47:33.867Z,10.25
2023-01-24T00:48:07.305Z,9.57
2023-01-24T00:48:39.221Z,8.95
2023-01-24T00:49:11.569Z,9.00
2023-01-24T00:49:43.656Z,9.48
2023-01-24T00:50:15.648Z,9.73
2023-01-24T00:50:47.644Z,9.10
2023-01-24T00:51:19.555Z,9.73
2023-01-24T00:51:51.504Z,9.50
2023-01-24T00:52:23.473Z,8.73
2023-01-24T00:52:55.435Z,8.82
2023-01-24T00:53:27.411Z,9.60
2023-01-24T00:53:59.380Z,9.43
2023-01-24T00:54:31.649Z,9.40
2023-01-24T00:55:03.894Z,10.30
2023-01-24T00:55:40.949Z,9.18
2023-01-24T00:56:12.905Z,8.93
2023-01-24T00:56:45.282Z,9.40
2023-01-24T00:57:17.130Z,9.10
2023-01-24T00:57:49.225Z,9.82
2023-01-24T00:58:21.282Z,10.05
2023-01-24T00:58:53.225Z,9.38
2023-01-24T00:59:25.410Z,9.65
2023-01-24T00:59:57.573Z,9.77
2023-01-24T01:00:29.708Z,8.85
2023-01-24T01:01:04.914Z,9.35
2023-01-24T01:01:37.251Z,9.27
2023-01-24T01:02:09.293Z,9.30
2023-01-24T01:02:41.209Z,9.25
2023-01-24T01:03:19.314Z,9.93
2023-01-24T01:03:56.944Z,9.75
2023-01-24T01:04:28.839Z,8.93
2023-01-24T01:05:01.129Z,9.50
2023-01-24T01:05:33.402Z,9.20
2023-01-24T01:06:10.323Z,9.43
2023-01-24T01:06:42.347Z,9.52
2023-01-24T01:07:14.465Z,9.88
2023-01-24T01:07:46.397Z,9.02
2023-01-24T01:08:18.316Z,9.52
2023-01-24T01:08:50.211Z,8.32
2023-01-24T01:09:22.206Z,8.73
2023-01-24T01:09:54.171Z,9.32
2023-01-24T01:10:26.353Z,9.05
2023-01-24T01:10:58.408Z,8.82
2023-01-24T01:11:30.394Z,7.93
2023-01-24T01:12:04.202Z,8.40
2023-01-24T01:12:36.070Z,7.55
2023-01-24T01:13:12.528Z,8.43
2023-01-24T01:13:45.934Z,7.87
2023-01-24T01:14:18.463Z,8.02
2023-01-24T01:14:50.573Z,7.32
2023-01-24T01:15:22.836Z,8.13
2023-01-24T01:16:05.843Z,7.47
2023-01-24T01:16:40.826Z,7.40
2023-01-24T01:17:12.756Z,7.60
2023-01-24T01:17:44.671Z,7.87
2023-01-24T01:18:16.578Z,8.27
2023-01-24T01:18:50.523Z,8.63
2023-01-24T01:19:22.490Z,8.30
2023-01-24T01:19:54.918Z,8.32
2023-01-24T01:20:27.967Z,7.82
2023-01-24T01:21:00.164Z,8.60
2023-01-24T01:21:33.325Z,7.55
2023-01-24T01:22:05.276Z,8.65
2023-01-24T01:22:37.144Z,8.60
2023-01-24T01:23:09.080Z,8.07
2023-01-24T01:23:41.076Z,8.02
2023-01-24T01:24:12.980Z,8.38
2023-01-24T01:24:44.932Z,9.25
2023-01-24T01:25:16.923Z,8.30
2023-01-24T01:25:48.803Z,8.13
2023-01-24T01:26:22.841Z,8.50
2023-01-24T01:26:54.748Z,8.30
2023-01-24T01:27:26.607Z,8.75
2023-01-24T01:27:58.764Z,8.43
2023-01-24T01:28:30.877Z,8.10
2023-01-24T01:29:02.811Z,8.55
2023-01-24T01:29:35.273Z,8.82
2023-01-24T01:30:07.822Z,7.70
2023-01-24T01:30:39.841Z,8.48
2023-01-24T01:31:11.811Z,7.97
2023-01-24T01:31:44.101Z,8.43
2023-01-24T01:32:15.999Z,8.25
2023-01-24T01:32:48.181Z,7.53
2023-01-24T01:33:20.130Z,8.50
2023-01-24T01:33:52.036Z,7.75
2023-01-24T01:34:25.447Z,8.35
2023-01-24T01:34:57.341Z,8.10
2023-01-24T01:35:30.101Z,7.93
2023-01-24T01:36:02.268Z,7.80
2023-01-24T01:36:34.147Z,7.87
2023-01-24T01:37:06.350Z,7.53
2023-01-24T01:37:38.195Z,7.53
2023-01-24T01:38:10.061Z,7.85
2023-01-24T01:38:42.023Z,8.23
2023-01-24T01:39:14.012Z,7.55
2023-01-24T01:39:45.916Z,7.95
2023-01-24T01:40:19.203Z,7.25
2023-01-24T01:40:52.656Z,7.45
2023-01-24T01:41:24.827Z,7.53
2023-01-24T01:41:56.723Z,7.35
2023-01-24T01:42:41.998Z,7.10
2023-01-24T01:43:19.479Z,7.40
2023-01-24T01:44:10.006Z,7.37
2023-01-24T01:44:44.298Z,7.60
2023-01-24T01:45:40.065Z,7.03
2023-01-24T01:46:22.151Z,7.30
2023-01-24T01:46:55.015Z,7.70
2023-01-24T01:47:36.784Z,7.87
2023-01-24T01:48:15.053Z,7.47
2023-01-24T01:48:51.963Z,7.10
2023-01-24T01:49:27.678Z,7.47
2023-01-24T01:50:26.905Z,7.15
2023-01-24T01:51:14.956Z,7.55
2023-01-24T01:51:50.595Z,7.43
2023-01-24T01:52:25.885Z,7.07
2023-01-24T01:52:58.466Z,6.87
2023-01-24T01:53:38.243Z,7.40
2023-01-24T01:54:21.894Z,7.12
2023-01-24T01:55:00.375Z,6.97
2023-01-24T01:55:37.134Z,7.53
2023-01-24T01:56:17.969Z,7.20
2023-01-24T01:57:04.232Z,7.60
2023-01-24T01:57:37.407Z,7.28
2023-01-24T01:58:09.515Z,7.68
2023-01-24T01:58:42.525Z,7.43
2023-01-24T01:59:26.311Z,7.28
2023-01-24T02:00:20.680Z,7.90
2023-01-24T02:00:53.403Z,7.75
2023-01-24T02:01:25.708Z,7.70
2023-01-24T02:01:58.927Z,8.05
2023-01-24T02:02:32.554Z,8.43
2023-01-24T02:03:33.743Z,7.90
2023-01-24T02:04:09.687Z,7.28
2023-01-24T02:04:47.897Z,8.57
2023-01-24T02:05:25.046Z,8.50
2023-01-24T02:05:59.081Z,7.90
2023-01-24T02:06:46.551Z,8.20
2023-01-24T02:07:25.343Z,9.07
2023-01-24T02:08:02.650Z,9.32
2023-01-24T02:08:35.131Z,9.60
2023-01-24T02:09:09.789Z,8.32
2023-01-24T02:09:44.959Z,10.65
2023-01-24T02:10:20.407Z,9.60
2023-01-24T02:11:12.404Z,9.68
2023-01-24T02:11:45.855Z,10.10
2023-01-24T02:12:24.913Z,9.15
2023-01-24T02:12:56.798Z,9.25
2023-01-24T02:13:28.792Z,9.75
2023-01-24T02:14:21.350Z,10.23
2023-01-24T02:15:16.412Z,9.95
2023-01-24T02:16:04.727Z,9.82
2023-01-24T02:16:36.698Z,9.07
2023-01-24T02:17:09.231Z,9.27
2023-01-24T02:17:41.835Z,9.18
2023-01-24T02:18:13.718Z,9.60
2023-01-24T02:18:45.668Z,8.43
2023-01-24T02:20:19.067Z,7.82
2023-01-24T02:20:51.023Z,7.82
2023-01-24T02:21:22.955Z,6.90
2023-01-24T02:22:02.172Z,6.93
2023-01-24T02:22:58.740Z,7.25
2023-01-24T02:23:48.984Z,7.05
2023-01-24T02:24:40.320Z,7.15
2023-01-24T02:25:41.432Z,6.70
2023-01-24T02:26:24.899Z,7.32
2023-01-24T02:26:56.841Z,6.65
2023-01-24T02:27:29.118Z,7.40
2023-01-24T02:28:03.536Z,7.68
2023-01-24T02:28:36.464Z,7.25
2023-01-24T02:29:12.638Z,7.03
2023-01-24T02:29:44.553Z,6.78
2023-01-24T02:30:16.830Z,7.15
2023-01-24T02:30:48.776Z,6.87
2023-01-24T02:31:21.246Z,7.20
2023-01-24T02:32:02.069Z,6.82
2023-01-24T02:33:18.568Z,6.40
2023-01-24T02:33:50.454Z,7.15
2023-01-24T02:34:22.537Z,6.62
2023-01-24T02:34:54.614Z,7.57
2023-01-24T02:35:32.829Z,7.43
2023-01-24T02:36:24.780Z,6.70
2023-01-24T02:36:59.999Z,6.43
2023-01-24T02:37:34.313Z,7.50
2023-01-24T02:38:13.632Z,6.70
2023-01-24T02:38:51.189Z,6.60
2023-01-24T02:39:29.193Z,6.85
2023-01-24T02:40:08.277Z,6.57
2023-01-24T02:40:42.698Z,6.68
2023-01-24T02:41:18.294Z,6.60
2023-01-24T02:41:54.063Z,7.37
2023-01-24T02:42:33.634Z,7.20
2023-01-24T02:43:08.359Z,7.55
2023-01-24T02:43:46.977Z,8.20
2023-01-24T02:44:28.120Z,8.77
2023-01-24T02:45:18.385Z,11.35
2023-01-24T02:45:50.598Z,11.55
2023-01-24T02:46:22.537Z,10.80
2023-01-24T02:46:54.482Z,10.85
2023-01-24T02:47:33.396Z,9.57
2023-01-24T02:48:05.515Z,8.25
2023-01-24T02:48:37.453Z,7.30
2023-01-24T02:49:10.192Z,7.32
2023-01-24T02:49:42.476Z,6.93
2023-01-24T02:50:15.170Z,7.47
2023-01-24T02:51:05.522Z,7.25
2023-01-24T02:51:56.970Z,6.85
2023-01-24T02:52:48.435Z,7.25
2023-01-24T02:53:30.583Z,7.35
2023-01-24T02:54:02.571Z,6.75
2023-01-24T02:54:36.289Z,6.53
2023-01-24T02:55:08.488Z,6.95
2023-01-24T02:56:00.342Z,6.50
2023-01-24T02:56:51.284Z,6.40
2023-01-24T02:57:42.216Z,6.10
2023-01-24T02:58:14.096Z,6.72
2023-01-24T02:58:46.707Z,6.53
2023-01-24T02:59:18.683Z,6.25
2023-01-24T02:59:52.301Z,7.10
2023-01-24T03:00:24.407Z,7.12
2023-01-24T03:00:56.607Z,6.70
2023-01-24T03:01:29.002Z,6.82
2023-01-24T03:02:00.963Z,7.25
2023-01-24T03:02:33.565Z,6.93
2023-01-24T03:03:07.006Z,6.68
2023-01-24T03:03:39.245Z,6.72
2023-01-24T03:04:12.841Z,6.43
2023-01-24T03:04:44.924Z,6.53
2023-01-24T03:05:17.121Z,6.95
2023-01-24T03:05:58.238Z,7.90
2023-01-24T03:06:30.655Z,7.00
2023-01-24T03:07:02.972Z,7.20
2023-01-24T03:07:44.567Z,6.47
2023-01-24T03:08:48.834Z,6.68
2023-01-24T03:09:34.428Z,6.00
2023-01-24T03:10:13.938Z,6.50
2023-01-24T03:10:47.774Z,6.45
2023-01-24T03:11:20.808Z,7.07
2023-01-24T03:11:52.956Z,6.15
2023-01-24T03:12:43.719Z,7.30
2023-01-24T03:13:34.454Z,6.80
2023-01-24T03:14:24.987Z,6.55
2023-01-24T03:15:15.851Z,6.12
2023-01-24T03:16:06.655Z,6.80
2023-01-24T03:16:57.156Z,6.55
2023-01-24T03:17:47.739Z,6.72
2023-01-24T03:18:38.147Z,6.62
2023-01-24T03:19:28.661Z,6.50
2023-01-24T03:20:19.879Z,6.07
2023-01-24T03:21:11.008Z,6.62
2023-01-24T03:22:01.832Z,6.47
2023-01-24T03:22:52.088Z,6.30
2023-01-24T03:23:42.533Z,6.10
2023-01-24T03:24:33.469Z,6.35
2023-01-24T03:25:24.645Z,6.37
2023-01-24T03:26:17.162Z,6.62
2023-01-24T03:27:07.917Z,6.35
2023-01-24T03:27:58.957Z,6.78
2023-01-24T03:28:49.713Z,6.60
2023-01-24T03:29:40.665Z,6.25
2023-01-24T03:30:31.544Z,6.47
2023-01-24T03:31:26.169Z,7.22
2023-01-24T03:32:17.912Z,6.87
2023-01-24T03:34:00.303Z,7.97
2023-01-24T03:34:46.412Z,7.40
2023-01-24T03:35:18.451Z,8.10
2023-01-24T03:35:59.229Z,8.20
2023-01-24T03:36:32.987Z,6.93
2023-01-24T03:37:05.381Z,7.75
2023-01-24T03:37:56.125Z,8.07
2023-01-24T03:39:37.647Z,7.35
2023-01-24T03:40:14.076Z,7.75
2023-01-24T03:40:47.450Z,7.80
2023-01-24T03:41:19.442Z,7.40
2023-01-24T03:41:53.314Z,7.50
2023-01-24T03:42:27.552Z,7.55
2023-01-24T03:43:01.092Z,7.53
2023-01-24T03:43:33.671Z,7.18
2023-01-24T03:44:05.677Z,7.05
2023-01-24T03:44:37.582Z,6.70
2023-01-24T03:45:17.328Z,6.82
2023-01-24T03:45:54.697Z,6.30
2023-01-24T03:46:28.106Z,6.40
2023-01-24T03:47:00.793Z,7.00
2023-01-24T03:47:32.900Z,7.37
2023-01-24T03:48:13.903Z,7.20
2023-01-24T03:48:45.928Z,7.05
2023-01-24T03:49:18.024Z,6.47
2023-01-24T03:50:08.883Z,7.12
2023-01-24T03:51:02.344Z,7.05
2023-01-24T03:51:53.117Z,6.20
2023-01-24T03:52:31.422Z,6.82
2023-01-24T03:53:06.789Z,6.45
2023-01-24T03:53:39.035Z,6.65
2023-01-24T03:54:11.588Z,6.57
2023-01-24T03:54:43.995Z,6.32
2023-01-24T03:55:16.155Z,6.55
2023-01-24T03:55:52.094Z,6.55
2023-01-24T03:56:24.267Z,6.55
2023-01-24T03:56:58.280Z,6.97
2023-01-24T03:57:30.652Z,6.95
2023-01-24T03:58:03.738Z,6.85
2023-01-24T03:58:35.910Z,7.18
2023-01-24T03:59:08.555Z,6.97
2023-01-24T03:59:41.174Z,6.97
2023-01-24T04:00:13.896Z,6.57
2023-01-24T04:00:48.979Z,6.57
2023-01-24T04:01:23.362Z,6.95
2023-01-24T04:01:56.578Z,7.68
2023-01-24T04:02:29.273Z,8.02
2023-01-24T04:03:01.896Z,7.00
2023-01-24T04:03:34.773Z,7.40
2023-01-24T04:04:06.999Z,6.70
2023-01-24T04:04:59.865Z,7.07
2023-01-24T04:05:34.195Z,6.87
2023-01-24T04:06:06.483Z,6.80
2023-01-24T04:06:38.872Z,6.65
2023-01-24T04:07:25.297Z,7.25
2023-01-24T04:07:58.862Z,6.50
2023-01-24T04:08:31.140Z,6.75
2023-01-24T04:09:03.177Z,6.85
2023-01-24T04:09:35.141Z,6.85
2023-01-24T04:10:07.897Z,6.35
2023-01-24T04:10:40.535Z,6.70
2023-01-24T04:11:12.756Z,6.90
2023-01-24T04:11:45.056Z,7.80
2023-01-24T04:12:18.260Z,6.18
2023-01-24T04:12:50.283Z,7.40
2023-01-24T04:13:22.142Z,6.97
2023-01-24T04:13:54.344Z,7.70
2023-01-24T04:14:26.219Z,7.18
2023-01-24T04:14:58.938Z,7.12
2023-01-24T04:15:33.554Z,7.30
2023-01-24T04:16:09.026Z,6.90
2023-01-24T04:16:44.095Z,7.25
2023-01-24T04:17:16.876Z,6.35
2023-01-24T04:17:48.922Z,7.75
2023-01-24T04:18:21.681Z,6.93
2023-01-24T04:18:53.682Z,6.85
2023-01-24T04:19:26.268Z,7.75
2023-01-24T04:19:58.296Z,7.00
2023-01-24T04:20:32.652Z,7.47
2023-01-24T04:21:06.769Z,7.18
2023-01-24T04:21:38.843Z,6.82
2023-01-24T04:22:10.785Z,6.90
2023-01-24T04:22:43.836Z,7.37
2023-01-24T04:23:16.039Z,8.43
2023-01-24T04:23:48.163Z,8.00
2023-01-24T04:24:20.392Z,8.45
2023-01-24T04:24:52.558Z,7.53
2023-01-24T04:25:25.176Z,7.82
2023-01-24T04:25:59.468Z,7.75
2023-01-24T04:26:32.844Z,9.20
2023-01-24T04:27:05.516Z,9.60
2023-01-24T04:27:38.847Z,10.57
2023-01-24T04:28:11.232Z,11.23
2023-01-24T04:28:43.361Z,9.95
2023-01-24T04:29:15.617Z,9.98
2023-01-24T04:29:47.962Z,9.85
2023-01-24T04:30:20.559Z,11.12
2023-01-24T04:31:00.996Z,11.30
2023-01-24T04:31:35.130Z,11.75
2023-01-24T04:32:08.468Z,11.68
2023-01-24T04:32:40.891Z,12.07
2023-01-24T04:33:13.725Z,12.50
2023-01-24T04:33:46.595Z,12.48
2023-01-24T04:34:19.085Z,13.38
2023-01-24T04:34:51.359Z,12.20
2023-01-24T04:35:28.532Z,12.77
2023-01-24T04:36:00.674Z,11.57
2023-01-24T04:36:33.658Z,13.35
2023-01-24T04:37:05.800Z,11.70
2023-01-24T04:37:38.609Z,12.25
2023-01-24T04:38:10.560Z,11.30
2023-01-24T04:38:43.024Z,10.70
2023-01-24T04:39:15.287Z,10.73
2023-01-24T04:39:48.210Z,9.90
2023-01-24T04:40:20.839Z,9.20
2023-01-24T04:41:02.579Z,9.73
2023-01-24T04:41:35.024Z,10.88
2023-01-24T04:42:07.278Z,11.82
2023-01-24T04:42:40.183Z,12.40
2023-01-24T04:43:12.805Z,14.02
2023-01-24T04:43:45.374Z,12.77
2023-01-24T04:44:17.457Z,14.45
2023-01-24T04:44:49.722Z,13.30
2023-01-24T04:45:22.104Z,12.90
2023-01-24T04:45:59.249Z,11.15
2023-01-24T04:46:32.189Z,11.27
2023-01-24T04:47:05.482Z,11.85
2023-01-24T04:47:37.581Z,10.68
2023-01-24T04:48:10.432Z,11.07
2023-01-24T04:48:44.028Z,9.32
2023-01-24T04:49:16.868Z,8.75
2023-01-24T04:49:48.948Z,9.73
2023-01-24T04:50:21.517Z,9.25
2023-01-24T04:50:58.144Z,8.82
2023-01-24T04:51:30.143Z,8.73
2023-01-24T04:52:02.833Z,13.60
2023-01-24T04:52:35.440Z,9.88
2023-01-24T04:53:07.776Z,8.40
2023-01-24T04:53:41.487Z,9.20
2023-01-24T04:54:15.679Z,9.32
2023-01-24T04:54:48.051Z,8.30
2023-01-24T04:55:21.017Z,9.20
2023-01-24T04:55:54.312Z,8.75
2023-01-24T04:56:26.917Z,9.30
2023-01-24T04:56:59.026Z,8.02
2023-01-24T04:57:31.166Z,8.48
2023-01-24T04:58:04.237Z,8.95
2023-01-24T04:58:36.225Z,9.40
2023-01-24T04:59:11.307Z,8.98
2023-01-24T04:59:45.632Z,8.68
2023-01-24T05:00:18.220Z,8.82
2023-01-24T05:00:51.256Z,9.25
2023-01-24T05:01:23.679Z,9.40
2023-01-24T05:01:56.303Z,9.20
2023-01-24T05:02:28.721Z,10.38
2023-01-24T05:03:00.951Z,10.95
2023-01-24T05:03:33.427Z,10.10
2023-01-24T05:04:05.858Z,10.25
2023-01-24T05:04:38.463Z,9.57
2023-01-24T05:05:11.538Z,9.65
2023-01-24T05:05:53.260Z,9.95
2023-01-24T05:06:31.119Z,10.20
2023-01-24T05:07:03.999Z,9.65
2023-01-24T05:07:36.407Z,9.50
2023-01-24T05:08:08.853Z,10.05
2023-01-24T05:08:42.455Z,9.52
2023-01-24T05:09:14.768Z,10.13
2023-01-24T05:09:49.956Z,10.52
2023-01-24T05:10:24.400Z,10.38
2023-01-24T05:11:02.467Z,9.77
2023-01-24T05:11:37.562Z,9.80
2023-01-24T05:12:09.953Z,9.43
2023-01-24T05:12:41.863Z,9.77
2023-01-24T05:13:14.401Z,9.80
2023-01-24T05:13:46.433Z,9.45
2023-01-24T05:14:18.373Z,9.63
2023-01-24T05:14:50.967Z,11.00
2023-01-24T05:15:24.416Z,11.05
2023-01-24T05:15:57.310Z,10.68
2023-01-24T05:16:29.269Z,9.68
2023-01-24T05:17:01.191Z,10.35
2023-01-24T05:17:33.338Z,10.18
2023-01-24T05:18:05.458Z,10.48
2023-01-24T05:18:37.436Z,9.93
2023-01-24T05:19:09.432Z,9.07
2023-01-24T05:19:41.450Z,8.93
2023-01-24T05:20:14.069Z,9.55
2023-01-24T05:20:46.409Z,9.50
2023-01-24T05:21:19.848Z,10.05
2023-01-24T05:21:51.750Z,9.55
2023-01-24T05:22:23.628Z,9.25
2023-01-24T05:22:57.855Z,8.23
2023-01-24T05:23:30.121Z,8.55
2023-01-24T05:24:02.082Z,8.75
2023-01-24T05:24:34.021Z,8.30
2023-01-24T05:25:06.582Z,9.27
2023-01-24T05:25:38.642Z,8.20
2023-01-24T05:26:10.717Z,8.68
2023-01-24T05:26:42.988Z,7.70
2023-01-24T05:27:15.375Z,8.48
2023-01-24T05:27:48.072Z,8.77
2023-01-24T05:28:20.164Z,8.65
2023-01-24T05:28:53.526Z,7.90
2023-01-24T05:29:25.519Z,8.43
2023-01-24T05:29:58.879Z,8.25
2023-01-24T05:30:30.761Z,8.63
2023-01-24T05:31:08.403Z,8.38
2023-01-24T05:31:40.346Z,8.02
2023-01-24T05:32:13.122Z,8.07
2023-01-24T05:32:46.455Z,8.25
2023-01-24T05:33:19.889Z,7.95
2023-01-24T05:33:51.869Z,7.55
2023-01-24T05:34:24.494Z,8.13
2023-01-24T05:34:56.415Z,7.50
2023-01-24T05:35:28.375Z,7.28
2023-01-24T05:36:07.906Z,7.80
2023-01-24T05:36:40.523Z,7.90
2023-01-24T05:37:12.769Z,8.68
2023-01-24T05:37:44.939Z,7.72
2023-01-24T05:38:18.119Z,7.65
2023-01-24T05:38:54.030Z,7.90
2023-01-24T05:39:26.031Z,7.97
2023-01-24T05:39:58.424Z,7.85
2023-01-24T05:40:30.353Z,7.70
2023-01-24T05:41:08.213Z,7.55
2023-01-24T05:41:40.273Z,7.72
2023-01-24T05:42:13.178Z,7.70
2023-01-24T05:42:45.610Z,7.60
2023-01-24T05:43:17.684Z,7.18
2023-01-24T05:43:50.466Z,7.45
2023-01-24T05:44:22.655Z,7.82
2023-01-24T05:44:54.743Z,7.43
2023-01-24T05:45:26.601Z,7.87
2023-01-24T05:46:08.363Z,8.48
2023-01-24T05:46:40.930Z,8.27
2023-01-24T05:47:13.880Z,8.57
2023-01-24T05:47:46.159Z,9.35
2023-01-24T05:48:18.931Z,9.07
2023-01-24T05:48:52.061Z,8.65
2023-01-24T05:49:24.131Z,9.20
2023-01-24T05:49:56.226Z,9.13
2023-01-24T05:50:28.168Z,9.65
2023-01-24T05:51:16.768Z,8.95
2023-01-24T05:51:49.448Z,8.57
2023-01-24T05:52:24.753Z,10.20
2023-01-24T05:52:56.694Z,10.25
2023-01-24T05:53:29.974Z,10.02
2023-01-24T05:54:03.215Z,10.13
2023-01-24T05:54:37.348Z,9.65
2023-01-24T05:55:09.611Z,10.73
2023-01-24T05:55:41.703Z,9.10
2023-01-24T05:56:16.618Z,10.15
2023-01-24T05:56:48.508Z,9.75
2023-01-24T05:57:21.644Z,10.93
2023-01-24T05:58:00.780Z,10.50
2023-01-24T05:58:37.972Z,10.65
2023-01-24T05:59:11.538Z,12.30
2023-01-24T05:59:44.495Z,11.77
2023-01-24T06:00:17.482Z,11.27
2023-01-24T06:00:50.529Z,10.68
2023-01-24T06:01:23.386Z,10.75
2023-01-24T06:01:55.797Z,9.85
2023-01-24T06:02:28.440Z,10.85
2023-01-24T06:03:04.552Z,10.93
2023-01-24T06:03:39.184Z,9.55
2023-01-24T06:04:11.345Z,9.57
2023-01-24T06:04:44.694Z,10.57
2023-01-24T06:05:16.655Z,10.20
2023-01-24T06:05:54.427Z,10.57
2023-01-24T06:06:28.293Z,9.45
2023-01-24T06:07:00.196Z,9.70
2023-01-24T06:07:32.166Z,9.13
2023-01-24T06:08:04.357Z,9.32
2023-01-24T06:08:36.880Z,9.40
2023-01-24T06:09:09.675Z,10.23
2023-01-24T06:09:41.614Z,10.48
2023-01-24T06:10:13.771Z,9.25
2023-01-24T06:10:47.563Z,9.32
2023-01-24T06:11:22.161Z,9.48
2023-01-24T06:11:54.714Z,9.93
2023-01-24T06:12:28.451Z,9.20
2023-01-24T06:13:01.292Z,9.63
2023-01-24T06:13:33.857Z,9.85
2023-01-24T06:14:05.887Z,9.65
2023-01-24T06:14:37.765Z,10.18
2023-01-24T06:15:11.142Z,10.30
2023-01-24T06:15:43.076Z,9.98
2023-01-24T06:16:22.683Z,9.23
2023-01-24T06:16:54.995Z,10.13
2023-01-24T06:17:26.948Z,10.02
2023-01-24T06:17:58.888Z,9.80
2023-01-24T06:18:30.932Z,9.68
2023-01-24T06:19:03.244Z,10.43
2023-01-24T06:19:35.938Z,10.77
2023-01-24T06:20:11.593Z,11.18
2023-01-24T06:20:43.890Z,10.02
2023-01-24T06:21:40.535Z,10.27
2023-01-24T06:22:33.272Z,10.30
2023-01-24T06:23:08.300Z,8.85
2023-01-24T06:23:40.934Z,8.40
2023-01-24T06:24:23.367Z,9.32
2023-01-24T06:24:55.964Z,9.02
2023-01-24T06:25:28.998Z,8.50
2023-01-24T06:26:01.234Z,8.23
2023-01-24T06:26:33.700Z,8.80
2023-01-24T06:27:05.938Z,9.43
2023-01-24T06:27:38.284Z,8.93
2023-01-24T06:28:10.609Z,8.25
2023-01-24T06:28:42.716Z,8.60
2023-01-24T06:29:15.146Z,9.25
2023-01-24T06:29:47.346Z,9.20
2023-01-24T06:30:20.587Z,9.13
2023-01-24T06:31:05.972Z,9.57
2023-01-24T06:31:50.156Z,9.95
2023-01-24T06:33:03.781Z,10.00
2023-01-24T06:34:05.206Z,10.00
2023-01-24T06:35:01.948Z,11.32
2023-01-24T06:35:49.052Z,11.18
2023-01-24T06:36:58.968Z,14.00
2023-01-24T06:37:42.975Z,13.90
2023-01-24T06:38:24.101Z,14.55
2023-01-24T06:38:56.721Z,13.55
2023-01-24T06:39:28.863Z,12.85
2023-01-24T06:40:01.089Z,11.68
2023-01-24T06:40:33.057Z,13.35
2023-01-24T06:41:17.787Z,12.85
2023-01-24T06:41:50.002Z,12.75
2023-01-24T06:42:25.685Z,12.77
2023-01-24T06:42:58.624Z,11.60
2023-01-24T06:43:30.815Z,11.45
2023-01-24T06:44:03.334Z,10.88
2023-01-24T06:44:35.483Z,10.23
2023-01-24T06:45:08.595Z,11.20
2023-01-24T06:45:40.480Z,11.82
2023-01-24T06:46:13.980Z,11.30
2023-01-24T06:46:45.863Z,10.95
2023-01-24T06:47:17.911Z,10.32
2023-01-24T06:47:49.805Z,10.48
2023-01-24T06:48:22.302Z,10.25
2023-01-24T06:48:54.325Z,11.27
2023-01-24T06:49:26.496Z,11.70
2023-01-24T06:49:58.523Z,11.80
2023-01-24T06:50:32.436Z,11.25
2023-01-24T06:51:05.244Z,9.88
2023-01-24T06:51:37.196Z,12.05
2023-01-24T06:52:09.594Z,10.75
2023-01-24T06:52:41.542Z,10.77
2023-01-24T06:53:15.281Z,10.38
2023-01-24T06:53:47.193Z,11.07
2023-01-24T06:54:19.509Z,10.45
2023-01-24T06:54:51.751Z,12.07
2023-01-24T06:55:24.194Z,12.90
2023-01-24T06:55:56.224Z,11.95
2023-01-24T06:56:28.195Z,11.82
2023-01-24T06:57:00.060Z,10.60
2023-01-24T06:57:31.939Z,10.93
2023-01-24T06:58:04.808Z,11.00
2023-01-24T06:58:36.897Z,12.27
2023-01-24T06:59:08.760Z,11.20
2023-01-24T06:59:40.778Z,10.07
2023-01-24T07:00:13.548Z,11.05
2023-01-24T07:00:45.441Z,11.45
2023-01-24T07:01:17.432Z,11.02
2023-01-24T07:01:50.099Z,12.25
2023-01-24T07:02:21.987Z,12.02
2023-01-24T07:03:07.319Z,10.98
2023-01-24T07:03:39.301Z,12.20
2023-01-24T07:04:11.575Z,11.23
2023-01-24T07:04:43.559Z,11.30
2023-01-24T07:05:15.779Z,11.23
2023-01-24T07:05:48.694Z,9.80
2023-01-24T07:06:23.248Z,9.45
2023-01-24T07:06:55.148Z,9.05
2023-01-24T07:07:27.022Z,8.38
2023-01-24T07:07:58.974Z,7.53
2023-01-24T07:08:30.862Z,7.97
2023-01-24T07:09:03.104Z,8.32
2023-01-24T07:09:34.941Z,8.43
2023-01-24T07:10:07.200Z,8.73
2023-01-24T07:10:40.824Z,8.70
2023-01-24T07:11:12.728Z,9.02
2023-01-24T07:11:44.638Z,9.00
2023-01-24T07:12:16.594Z,8.77
2023-01-24T07:12:48.540Z,8.40
2023-01-24T07:13:20.600Z,7.93
2023-01-24T07:13:52.477Z,8.77
2023-01-24T07:14:24.385Z,8.90
2023-01-24T07:14:56.282Z,9.95
2023-01-24T07:15:28.704Z,10.55
2023-01-24T07:16:02.818Z,9.65
2023-01-24T07:16:35.350Z,9.70
2023-01-24T07:17:08.433Z,10.35
2023-01-24T07:17:40.847Z,11.27
2023-01-24T07:18:14.273Z,10.38
2023-01-24T07:18:46.419Z,9.73
2023-01-24T07:19:22.764Z,10.52
2023-01-24T07:19:55.035Z,10.63
2023-01-24T07:20:27.171Z,10.20
2023-01-24T07:20:59.424Z,11.23
2023-01-24T07:21:31.954Z,11.45
2023-01-24T07:22:04.157Z,13.05
2023-01-24T07:22:38.329Z,13.15
2023-01-24T07:23:25.758Z,13.18
2023-01-24T07:23:58.795Z,11.12
2023-01-24T07:24:31.312Z,11.02
2023-01-24T07:25:04.109Z,9.90
2023-01-24T07:25:38.172Z,9.57
2023-01-24T07:26:12.225Z,10.13
2023-01-24T07:26:44.821Z,10.82
2023-01-24T07:27:16.964Z,11.05
2023-01-24T07:27:49.068Z,11.30
2023-01-24T07:28:21.137Z,10.75
2023-01-24T07:28:52.994Z,12.00
2023-01-24T07:29:24.905Z,12.48
2023-01-24T07:29:56.789Z,11.88
2023-01-24T07:30:29.435Z,10.10
2023-01-24T07:31:01.400Z,9.88
2023-01-24T07:31:33.875Z,10.23
2023-01-24T07:32:06.298Z,10.63
2023-01-24T07:32:38.628Z,10.18
2023-01-24T07:33:10.540Z,10.02
2023-01-24T07:33:42.453Z,10.90
2023-01-24T07:34:17.531Z,10.60
2023-01-24T07:34:50.064Z,10.32
2023-01-24T07:35:22.189Z,10.07
2023-01-24T07:35:54.166Z,11.20
2023-01-24T07:36:26.053Z,10.57
2023-01-24T07:36:58.127Z,11.27
2023-01-24T07:37:30.806Z,11.07
2023-01-24T07:38:02.719Z,11.38
2023-01-24T07:38:34.868Z,11.68
2023-01-24T07:39:06.784Z,12.43
2023-01-24T07:39:38.731Z,11.77
2023-01-24T07:40:11.423Z,12.85
2023-01-24T07:40:43.469Z,15.55
2023-01-24T07:41:15.390Z,14.45
2023-01-24T07:41:47.261Z,13.50
2023-01-24T07:42:19.151Z,13.43
2023-01-24T07:42:51.272Z,12.05
2023-01-24T07:43:23.310Z,12.85
2023-01-24T07:43:56.526Z,13.00